createdAt,value
2018-04-25T00:00:16.267Z,8.05
2018-04-25T00:01:16.309Z,8.05
2018-04-25T00:02:16.573Z,8.05
2018-04-25T00:03:16.847Z,8.05
2018-04-25T00:04:17.106Z,7.98
2018-04-25T00:05:16.358Z,7.98
2018-04-25T00:06:16.615Z,7.98
2018-04-25T00:07:16.876Z,7.92
2018-04-25T00:08:17.137Z,7.86
2018-04-25T00:09:16.398Z,7.86
2018-04-25T00:10:16.669Z,7.92
2018-04-25T00:11:16.715Z,7.92
2018-04-25T00:12:16.985Z,7.98
2018-04-25T00:13:16.261Z,7.98
2018-04-25T00:14:16.524Z,7.98
2018-04-25T00:15:16.791Z,7.92
2018-04-25T00:16:17.058Z,7.86
2018-04-25T00:17:16.317Z,7.86
2018-04-25T00:18:16.583Z,7.86
2018-04-25T00:19:16.858Z,7.86
2018-04-25T00:20:17.133Z,7.80
2018-04-25T00:21:17.164Z,7.73
2018-04-25T00:22:16.431Z,7.73
2018-04-25T00:23:16.699Z,7.80
2018-04-25T00:24:17.028Z,7.80
2018-04-25T00:25:16.394Z,7.86
2018-04-25T00:26:16.662Z,7.86
2018-04-25T00:27:16.926Z,7.86
2018-04-25T00:28:17.206Z,7.86
2018-04-25T00:29:16.470Z,7.86
2018-04-25T00:30:16.739Z,7.86
2018-04-25T00:31:16.796Z,7.92
2018-04-25T00:32:17.072Z,7.92
2018-04-25T00:33:16.339Z,7.92
2018-04-25T00:34:16.599Z,7.92
2018-04-25T00:35:16.869Z,7.92
2018-04-25T00:36:17.131Z,7.92
2018-04-25T00:37:16.397Z,7.92
2018-04-25T00:38:16.653Z,7.92
2018-04-25T00:39:16.914Z,7.86
2018-04-25T00:40:17.178Z,7.86
2018-04-25T00:41:17.232Z,7.80
2018-04-25T00:42:16.499Z,7.80
2018-04-25T00:43:16.759Z,7.80
2018-04-25T00:44:17.018Z,7.92
2018-04-25T00:45:16.279Z,7.86
2018-04-25T00:46:16.543Z,7.86
2018-04-25T00:47:16.814Z,7.86
2018-04-25T00:48:17.083Z,7.86
2018-04-25T00:49:16.342Z,7.80
2018-04-25T00:50:16.607Z,7.80
2018-04-25T00:51:16.648Z,7.80
2018-04-25T00:52:16.906Z,7.80
2018-04-25T00:53:17.169Z,7.73
2018-04-25T00:54:16.433Z,7.73
2018-04-25T00:55:16.697Z,7.73
2018-04-25T00:56:16.976Z,7.67
2018-04-25T00:57:16.248Z,7.67
2018-04-25T00:58:16.512Z,7.67
2018-04-25T00:59:16.785Z,7.61
2018-04-25T01:00:17.055Z,7.61
2018-04-25T01:01:17.101Z,7.67
2018-04-25T01:02:16.358Z,7.61
2018-04-25T01:03:16.612Z,7.67
2018-04-25T01:04:16.866Z,7.61
2018-04-25T01:05:17.129Z,7.67
2018-04-25T01:06:16.391Z,7.67
2018-04-25T01:07:16.654Z,7.67
2018-04-25T01:08:16.915Z,7.67
2018-04-25T01:09:17.924Z,7.67
2018-04-25T01:10:17.191Z,7.61
2018-04-25T01:11:16.240Z,7.55
2018-04-25T01:12:16.508Z,7.55
2018-04-25T01:13:16.776Z,7.48
2018-04-25T01:14:17.323Z,7.48
2018-04-25T01:15:16.585Z,7.42
2018-04-25T01:16:16.851Z,7.36
2018-04-25T01:17:17.117Z,7.36
2018-04-25T01:18:16.384Z,7.36
2018-04-25T01:19:16.651Z,7.36
2018-04-25T01:20:16.928Z,7.30
2018-04-25T01:21:16.965Z,7.30
2018-04-25T01:22:17.227Z,7.30
2018-04-25T01:23:16.483Z,7.30
2018-04-25T01:24:16.748Z,7.23
2018-04-25T01:25:17.010Z,7.23
2018-04-25T01:26:16.268Z,7.23
2018-04-25T01:27:16.534Z,7.17
2018-04-25T01:28:16.808Z,7.17
2018-04-25T01:29:17.073Z,7.11
2018-04-25T01:30:16.346Z,7.17
2018-04-25T01:31:16.388Z,7.23
2018-04-25T01:32:16.644Z,7.30
2018-04-25T01:33:16.904Z,7.30
2018-04-25T01:34:17.178Z,7.30
2018-04-25T01:35:16.440Z,7.30
2018-04-25T01:36:16.733Z,7.30
2018-04-25T01:37:16.986Z,7.30
2018-04-25T01:38:16.253Z,7.30
2018-04-25T01:39:16.516Z,7.30
2018-04-25T01:40:16.799Z,7.30
2018-04-25T01:41:16.840Z,7.23
2018-04-25T01:42:17.107Z,7.30
2018-04-25T01:43:16.376Z,7.30
2018-04-25T01:44:16.633Z,7.30
2018-04-25T01:45:16.900Z,7.23
2018-04-25T01:46:17.164Z,7.17
2018-04-25T01:47:16.424Z,7.11
2018-04-25T01:48:16.685Z,7.05
2018-04-25T01:49:16.950Z,6.98
2018-04-25T01:50:17.221Z,6.98
2018-04-25T01:51:16.249Z,6.92
2018-04-25T01:52:16.521Z,6.92
2018-04-25T01:53:16.784Z,6.92
2018-04-25T01:54:17.047Z,6.92
2018-04-25T01:55:16.308Z,6.92
2018-04-25T01:56:16.568Z,6.92
2018-04-25T01:57:16.832Z,6.98
2018-04-25T01:58:17.099Z,6.92
2018-04-25T01:59:16.356Z,6.92
2018-04-25T02:00:16.641Z,6.92
2018-04-25T02:01:16.650Z,6.92
2018-04-25T02:02:16.920Z,6.86
2018-04-25T02:03:17.199Z,6.92
2018-04-25T02:04:16.477Z,6.92
2018-04-25T02:05:16.748Z,6.92
2018-04-25T02:06:17.015Z,6.92
2018-04-25T02:07:16.281Z,6.98
2018-04-25T02:08:16.546Z,6.86
2018-04-25T02:09:16.814Z,6.80
2018-04-25T02:10:17.107Z,6.80
2018-04-25T02:11:17.128Z,6.73
2018-04-25T02:12:16.392Z,6.73
2018-04-25T02:13:16.653Z,6.73
2018-04-25T02:14:16.908Z,6.73
2018-04-25T02:15:17.179Z,6.73
2018-04-25T02:16:16.445Z,6.73
2018-04-25T02:17:16.714Z,6.73
2018-04-25T02:18:16.976Z,6.73
2018-04-25T02:19:16.240Z,6.67
2018-04-25T02:20:16.515Z,6.67
2018-04-25T02:21:16.563Z,6.73
2018-04-25T02:22:16.840Z,6.73
2018-04-25T02:23:17.100Z,6.80
2018-04-25T02:24:16.361Z,6.73
2018-04-25T02:25:16.626Z,6.80
2018-04-25T02:26:16.894Z,6.80
2018-04-25T02:27:17.157Z,6.80
2018-04-25T02:28:16.422Z,6.73
2018-04-25T02:29:16.695Z,6.67
2018-04-25T02:30:16.957Z,6.67
2018-04-25T02:31:17.006Z,6.61
2018-04-25T02:32:16.266Z,6.55
2018-04-25T02:33:16.526Z,6.55
2018-04-25T02:34:16.789Z,6.55
2018-04-25T02:35:17.067Z,6.55
2018-04-25T02:36:16.343Z,6.55
2018-04-25T02:37:16.596Z,6.55
2018-04-25T02:38:16.856Z,6.61
2018-04-25T02:39:17.308Z,6.61
2018-04-25T02:40:16.592Z,6.73
2018-04-25T02:41:16.628Z,6.73
2018-04-25T02:42:16.899Z,6.73
2018-04-25T02:43:17.160Z,6.73
2018-04-25T02:44:16.529Z,6.73
2018-04-25T02:45:16.803Z,6.73
2018-04-25T02:46:17.076Z,6.67
2018-04-25T02:47:16.345Z,6.67
2018-04-25T02:48:16.603Z,6.67
2018-04-25T02:49:16.868Z,6.61
2018-04-25T02:50:17.177Z,6.61
2018-04-25T02:51:17.217Z,6.55
2018-04-25T02:52:16.485Z,6.55
2018-04-25T02:53:16.749Z,6.55
2018-04-25T02:54:17.029Z,6.55
2018-04-25T02:55:16.296Z,6.55
2018-04-25T02:56:16.569Z,6.48
2018-04-25T02:57:16.825Z,6.48
2018-04-25T02:58:17.101Z,6.42
2018-04-25T02:59:16.365Z,6.42
2018-04-25T03:00:16.631Z,6.36
2018-04-25T03:01:16.689Z,6.36
2018-04-25T03:02:16.950Z,6.30
2018-04-25T03:03:17.218Z,6.36
2018-04-25T03:04:16.491Z,6.30
2018-04-25T03:05:16.753Z,6.30
2018-04-25T03:06:17.091Z,6.42
2018-04-25T03:07:16.354Z,6.42
2018-04-25T03:08:16.624Z,6.42
2018-04-25T03:09:16.896Z,6.48
2018-04-25T03:10:17.182Z,6.55
2018-04-25T03:11:17.208Z,6.61
2018-04-25T03:12:16.471Z,6.55
2018-04-25T03:13:16.736Z,6.61
2018-04-25T03:14:17.002Z,6.61
2018-04-25T03:15:16.270Z,6.73
2018-04-25T03:16:16.535Z,6.73
2018-04-25T03:17:16.796Z,6.73
2018-04-25T03:18:17.060Z,6.73
2018-04-25T03:19:16.326Z,6.73
2018-04-25T03:20:16.596Z,6.67
2018-04-25T03:21:16.621Z,6.61
2018-04-25T03:22:16.890Z,6.61
2018-04-25T03:23:17.158Z,6.55
2018-04-25T03:24:16.426Z,6.55
2018-04-25T03:25:16.697Z,6.48
2018-04-25T03:26:16.956Z,6.55
2018-04-25T03:27:17.232Z,6.55
2018-04-25T03:28:16.574Z,6.48
2018-04-25T03:29:16.834Z,6.55
2018-04-25T03:30:17.103Z,6.48
2018-04-25T03:31:17.145Z,6.48
2018-04-25T03:32:16.402Z,6.55
2018-04-25T03:33:16.672Z,6.61
2018-04-25T03:34:16.927Z,6.61
2018-04-25T03:35:17.193Z,6.61
2018-04-25T03:36:16.452Z,6.61
2018-04-25T03:37:16.720Z,6.61
2018-04-25T03:38:16.981Z,6.61
2018-04-25T03:39:16.245Z,6.67
2018-04-25T03:40:16.518Z,6.67
2018-04-25T03:41:16.551Z,6.67
2018-04-25T03:42:16.822Z,6.67
2018-04-25T03:43:17.085Z,6.61
2018-04-25T03:44:16.349Z,6.67
2018-04-25T03:45:16.627Z,6.67
2018-04-25T03:46:16.892Z,6.67
2018-04-25T03:47:17.155Z,6.67
2018-04-25T03:48:16.418Z,6.61
2018-04-25T03:49:16.679Z,6.61
2018-04-25T03:50:16.945Z,6.61
2018-04-25T03:51:17.002Z,6.61
2018-04-25T03:52:16.262Z,6.55
2018-04-25T03:53:16.524Z,6.55
2018-04-25T03:54:16.787Z,6.55
2018-04-25T03:55:17.047Z,6.48
2018-04-25T03:56:16.306Z,6.61
2018-04-25T03:57:16.568Z,6.55
2018-04-25T03:58:16.828Z,6.48
2018-04-25T03:59:17.093Z,6.48
2018-04-25T04:00:16.360Z,6.48
2018-04-25T04:01:16.413Z,6.48
2018-04-25T04:02:16.670Z,6.48
2018-04-25T04:03:16.934Z,6.55
2018-04-25T04:04:17.195Z,6.55
2018-04-25T04:05:16.469Z,6.61
2018-04-25T04:06:16.725Z,6.61
2018-04-25T04:07:16.984Z,6.61
2018-04-25T04:08:16.247Z,6.67
2018-04-25T04:09:16.509Z,6.67
2018-04-25T04:10:16.786Z,6.67
2018-04-25T04:11:16.816Z,6.73
2018-04-25T04:12:17.090Z,6.73
2018-04-25T04:13:16.348Z,6.73
2018-04-25T04:14:16.627Z,6.80
2018-04-25T04:15:16.892Z,6.80
2018-04-25T04:16:17.158Z,6.86
2018-04-25T04:17:16.424Z,6.86
2018-04-25T04:18:16.699Z,6.92
2018-04-25T04:19:16.965Z,6.98
2018-04-25T04:20:17.253Z,6.98
2018-04-25T04:21:16.268Z,6.98
2018-04-25T04:22:16.541Z,7.05
2018-04-25T04:23:16.805Z,7.11
2018-04-25T04:24:17.078Z,7.11
2018-04-25T04:25:16.356Z,7.17
2018-04-25T04:26:16.635Z,7.17
2018-04-25T04:27:16.890Z,7.23
2018-04-25T04:28:17.160Z,7.23
2018-04-25T04:29:16.424Z,7.23
2018-04-25T04:30:16.698Z,7.30
2018-04-25T04:31:16.720Z,7.30
2018-04-25T04:32:16.990Z,7.36
2018-04-25T04:33:16.254Z,7.36
2018-04-25T04:34:16.528Z,7.42
2018-04-25T04:35:16.810Z,7.42
2018-04-25T04:36:17.078Z,7.48
2018-04-25T04:37:16.338Z,7.55
2018-04-25T04:38:16.615Z,7.55
2018-04-25T04:39:16.879Z,7.61
2018-04-25T04:40:17.145Z,7.61
2018-04-25T04:41:17.190Z,7.61
2018-04-25T04:42:16.448Z,7.61
2018-04-25T04:43:16.766Z,7.61
2018-04-25T04:44:17.183Z,7.67
2018-04-25T04:45:16.451Z,7.67
2018-04-25T04:46:16.718Z,7.73
2018-04-25T04:47:16.981Z,7.73
2018-04-25T04:48:16.247Z,7.80
2018-04-25T04:49:16.499Z,7.80
2018-04-25T04:50:16.766Z,7.80
2018-04-25T04:51:16.820Z,7.80
2018-04-25T04:52:17.097Z,7.86
2018-04-25T04:53:16.352Z,7.86
2018-04-25T04:54:16.617Z,7.86
2018-04-25T04:55:16.878Z,7.86
2018-04-25T04:56:17.143Z,7.92
2018-04-25T04:57:16.407Z,7.92
2018-04-25T04:58:16.668Z,7.92
2018-04-25T04:59:16.926Z,7.98
2018-04-25T05:00:17.189Z,7.98
2018-04-25T05:01:16.231Z,7.92
2018-04-25T05:02:16.495Z,7.98
2018-04-25T05:03:16.754Z,7.98
2018-04-25T05:04:17.016Z,8.05
2018-04-25T05:05:16.289Z,8.11
2018-04-25T05:06:16.575Z,8.11
2018-04-25T05:07:16.835Z,8.17
2018-04-25T05:08:17.106Z,8.23
2018-04-25T05:09:16.365Z,8.30
2018-04-25T05:10:16.634Z,8.42
2018-04-25T05:11:16.675Z,8.48
2018-04-25T05:12:16.938Z,8.61
2018-04-25T05:13:16.417Z,8.67
2018-04-25T05:14:16.678Z,8.73
2018-04-25T05:15:16.935Z,8.80
2018-04-25T05:16:17.196Z,8.86
2018-04-25T05:17:16.453Z,8.98
2018-04-25T05:18:16.719Z,9.05
2018-04-25T05:19:16.986Z,9.11
2018-04-25T05:20:16.261Z,9.23
2018-04-25T05:21:16.295Z,9.36
2018-04-25T05:22:16.563Z,9.36
2018-04-25T05:23:16.830Z,9.48
2018-04-25T05:24:17.111Z,9.55
2018-04-25T05:25:16.531Z,9.67
2018-04-25T05:26:16.797Z,9.73
2018-04-25T05:27:17.058Z,9.80
2018-04-25T05:28:16.318Z,9.86
2018-04-25T05:29:16.591Z,9.98
2018-04-25T05:30:16.868Z,10.05
2018-04-25T05:31:16.878Z,10.11
2018-04-25T05:32:17.140Z,10.17
2018-04-25T05:33:16.408Z,10.30
2018-04-25T05:34:16.667Z,10.36
2018-04-25T05:35:16.940Z,10.48
2018-04-25T05:36:17.217Z,10.55
2018-04-25T05:37:16.481Z,10.61
2018-04-25T05:38:16.740Z,10.67
2018-04-25T05:39:17.009Z,10.80
2018-04-25T05:40:16.283Z,10.86
2018-04-25T05:41:16.330Z,10.92
2018-04-25T05:42:16.600Z,11.05
2018-04-25T05:43:16.867Z,11.17
2018-04-25T05:44:17.142Z,11.23
2018-04-25T05:45:16.481Z,11.30
2018-04-25T05:46:16.736Z,11.30
2018-04-25T05:47:17.004Z,11.30
2018-04-25T05:48:16.266Z,11.42
2018-04-25T05:49:16.532Z,11.48
2018-04-25T05:50:16.800Z,11.61
2018-04-25T05:51:16.837Z,11.73
2018-04-25T05:52:17.101Z,11.73
2018-04-25T05:53:16.365Z,11.73
2018-04-25T05:54:16.624Z,11.73
2018-04-25T05:55:16.887Z,11.67
2018-04-25T05:56:17.146Z,11.48
2018-04-25T05:57:16.409Z,11.48
2018-04-25T05:58:16.673Z,11.42
2018-04-25T05:59:16.940Z,11.36
2018-04-25T06:00:17.209Z,11.30
2018-04-25T06:01:16.243Z,11.36
2018-04-25T06:02:16.508Z,11.36
2018-04-25T06:03:16.769Z,11.36
2018-04-25T06:04:17.033Z,11.42
2018-04-25T06:05:16.326Z,11.42
2018-04-25T06:06:16.585Z,11.42
2018-04-25T06:07:16.854Z,11.42
2018-04-25T06:08:17.121Z,11.48
2018-04-25T06:09:16.387Z,11.48
2018-04-25T06:10:16.662Z,11.55
2018-04-25T06:11:16.710Z,11.61
2018-04-25T06:12:16.980Z,11.73
2018-04-25T06:13:16.339Z,11.98
2018-04-25T06:14:16.607Z,12.17
2018-04-25T06:15:16.874Z,12.36
2018-04-25T06:16:17.217Z,12.55
2018-04-25T06:17:16.476Z,12.73
2018-04-25T06:18:16.743Z,12.92
2018-04-25T06:19:17.001Z,12.98
2018-04-25T06:20:16.297Z,13.05
2018-04-25T06:21:16.315Z,13.05
2018-04-25T06:22:16.587Z,12.98
2018-04-25T06:23:16.845Z,12.92
2018-04-25T06:24:17.111Z,12.86
2018-04-25T06:25:16.382Z,12.73
2018-04-25T06:26:16.650Z,12.80
2018-04-25T06:27:16.903Z,12.80
2018-04-25T06:28:17.178Z,12.86
2018-04-25T06:29:16.531Z,12.86
2018-04-25T06:30:16.811Z,12.86
2018-04-25T06:31:16.859Z,12.86
2018-04-25T06:32:17.121Z,12.92
2018-04-25T06:33:16.392Z,12.92
2018-04-25T06:34:16.652Z,12.98
2018-04-25T06:35:16.913Z,12.98
2018-04-25T06:36:17.175Z,12.98
2018-04-25T06:37:16.436Z,13.05
2018-04-25T06:38:16.697Z,13.05
2018-04-25T06:39:16.966Z,13.11
2018-04-25T06:40:17.238Z,13.17
2018-04-25T06:41:16.289Z,13.23
2018-04-25T06:42:16.565Z,13.36
2018-04-25T06:43:16.827Z,13.61
2018-04-25T06:44:17.083Z,13.80
2018-04-25T06:45:16.358Z,13.86
2018-04-25T06:46:16.617Z,13.98
2018-04-25T06:47:16.878Z,14.17
2018-04-25T06:48:17.147Z,14.36
2018-04-25T06:49:16.413Z,14.36
2018-04-25T06:50:16.680Z,14.36
2018-04-25T06:51:16.712Z,14.42
2018-04-25T06:52:16.973Z,14.48
2018-04-25T06:53:16.232Z,14.61
2018-04-25T06:54:16.501Z,14.86
2018-04-25T06:55:17.225Z,14.98
2018-04-25T06:56:16.486Z,15.05
2018-04-25T06:57:16.757Z,15.11
2018-04-25T06:58:17.023Z,15.23
2018-04-25T06:59:16.284Z,15.23
2018-04-25T07:00:16.550Z,15.30
2018-04-25T07:01:16.603Z,15.36
2018-04-25T07:02:16.873Z,15.48
2018-04-25T07:03:17.132Z,15.48
2018-04-25T07:04:16.397Z,15.48
2018-04-25T07:05:16.659Z,15.48
2018-04-25T07:06:16.937Z,15.42
2018-04-25T07:07:17.189Z,15.48
2018-04-25T07:08:16.557Z,15.36
2018-04-25T07:09:16.977Z,15.42
2018-04-25T07:10:16.242Z,15.48
2018-04-25T07:11:16.563Z,15.61
2018-04-25T07:12:16.824Z,15.67
2018-04-25T07:13:17.161Z,15.86
2018-04-25T07:14:16.521Z,15.80
2018-04-25T07:15:16.783Z,15.98
2018-04-25T07:16:17.051Z,16.11
2018-04-25T07:17:16.310Z,16.30
2018-04-25T07:18:16.577Z,16.42
2018-04-25T07:19:16.848Z,16.30
2018-04-25T07:20:17.127Z,16.30
2018-04-25T07:21:17.157Z,16.17
2018-04-25T07:22:16.414Z,16.11
2018-04-25T07:23:16.677Z,16.17
2018-04-25T07:24:16.950Z,16.17
2018-04-25T07:25:17.207Z,16.30
2018-04-25T07:26:16.845Z,16.30
2018-04-25T07:27:17.111Z,16.30
2018-04-25T07:28:16.375Z,16.30
2018-04-25T07:29:16.630Z,16.42
2018-04-25T07:30:16.908Z,16.48
2018-04-25T07:31:16.961Z,16.55
2018-04-25T07:32:16.230Z,16.67
2018-04-25T07:33:16.502Z,16.80
2018-04-25T07:34:16.771Z,16.80
2018-04-25T07:35:17.131Z,16.86
2018-04-25T07:36:16.483Z,16.86
2018-04-25T07:37:16.746Z,16.92
2018-04-25T07:38:17.002Z,16.86
2018-04-25T07:39:16.258Z,16.92
2018-04-25T07:40:16.529Z,16.80
2018-04-25T07:41:16.568Z,17.05
2018-04-25T07:42:16.833Z,17.05
2018-04-25T07:43:17.096Z,17.05
2018-04-25T07:44:16.350Z,17.11
2018-04-25T07:45:16.616Z,17.23
2018-04-25T07:46:16.876Z,17.36
2018-04-25T07:47:17.147Z,17.42
2018-04-25T07:48:16.397Z,17.48
2018-04-25T07:49:16.667Z,17.61
2018-04-25T07:50:16.939Z,17.55
2018-04-25T07:51:16.982Z,17.55
2018-04-25T07:52:16.259Z,17.67
2018-04-25T07:53:16.683Z,17.80
2018-04-25T07:54:16.950Z,18.05
2018-04-25T07:55:17.216Z,18.17
2018-04-25T07:56:16.478Z,18.36
2018-04-25T07:57:16.740Z,18.42
2018-04-25T07:58:16.994Z,18.42
2018-04-25T07:59:16.252Z,18.23
2018-04-25T08:00:16.537Z,18.36
2018-04-25T08:01:16.559Z,18.30
2018-04-25T08:02:16.832Z,18.48
2018-04-25T08:03:17.105Z,18.73
2018-04-25T08:04:16.366Z,18.73
2018-04-25T08:05:16.641Z,18.92
2018-04-25T08:06:16.911Z,18.92
2018-04-25T08:07:17.205Z,18.98
2018-04-25T08:08:16.462Z,18.92
2018-04-25T08:09:16.718Z,18.86
2018-04-25T08:10:16.990Z,18.92
2018-04-25T08:11:17.039Z,18.98
2018-04-25T08:12:16.325Z,18.92
2018-04-25T08:13:17.593Z,18.92
2018-04-25T08:14:16.860Z,18.98
2018-04-25T08:15:17.126Z,19.11
2018-04-25T08:16:16.381Z,18.92
2018-04-25T08:17:16.643Z,19.11
2018-04-25T08:18:16.898Z,19.11
2018-04-25T08:19:17.178Z,19.05
2018-04-25T08:20:16.464Z,19.05
2018-04-25T08:21:16.506Z,19.11
2018-04-25T08:22:16.760Z,18.86
2018-04-25T08:23:17.023Z,18.80
2018-04-25T08:24:16.292Z,18.86
2018-04-25T08:25:16.562Z,18.86
2018-04-25T08:26:16.823Z,18.86
2018-04-25T08:27:17.093Z,18.86
2018-04-25T08:28:16.357Z,18.92
2018-04-25T08:29:16.636Z,18.98
2018-04-25T08:30:16.902Z,18.92
2018-04-25T08:31:16.960Z,18.98
2018-04-25T08:32:17.220Z,19.11
2018-04-25T08:33:16.486Z,18.86
2018-04-25T08:34:16.751Z,18.92
2018-04-25T08:35:17.184Z,18.98
2018-04-25T08:36:16.447Z,18.80
2018-04-25T08:37:16.708Z,18.73
2018-04-25T08:38:16.961Z,18.73
2018-04-25T08:39:17.292Z,18.98
2018-04-25T08:40:16.723Z,19.17
2018-04-25T08:41:16.748Z,19.30
2018-04-25T08:42:17.014Z,19.23
2018-04-25T08:43:16.281Z,18.80
2018-04-25T08:44:16.542Z,20.17
2018-04-25T08:45:16.845Z,19.98
2018-04-25T08:46:17.176Z,20.05
2018-04-25T08:47:16.441Z,20.36
2018-04-25T08:48:16.707Z,20.80
2018-04-25T08:49:16.967Z,20.67
2018-04-25T08:50:17.235Z,21.36
2018-04-25T08:51:16.289Z,20.42
2018-04-25T08:52:16.560Z,19.92
2018-04-25T08:53:16.824Z,20.73
2018-04-25T08:54:17.097Z,20.67
2018-04-25T08:55:16.360Z,20.42
2018-04-25T08:56:16.625Z,20.55
2018-04-25T08:57:16.896Z,19.67
2018-04-25T08:58:17.161Z,19.98
2018-04-25T08:59:16.457Z,19.55
2018-04-25T09:00:16.788Z,19.55
2018-04-25T09:01:16.820Z,19.92
2018-04-25T09:02:17.099Z,20.92
2018-04-25T09:03:16.367Z,21.61
2018-04-25T09:04:16.630Z,21.36
2018-04-25T09:05:16.910Z,21.05
2018-04-25T09:06:17.172Z,21.92
2018-04-25T09:07:16.421Z,21.17
2018-04-25T09:08:16.685Z,20.30
2018-04-25T09:09:16.964Z,19.48
2018-04-25T09:10:17.266Z,19.36
2018-04-25T09:11:16.291Z,19.11
2018-04-25T09:12:16.547Z,19.05
2018-04-25T09:13:16.898Z,18.92
2018-04-25T09:14:16.248Z,18.92
2018-04-25T09:15:16.509Z,18.86
2018-04-25T09:16:16.783Z,18.92
2018-04-25T09:17:17.049Z,19.17
2018-04-25T09:18:16.304Z,19.11
2018-04-25T09:19:16.566Z,19.87
2018-04-25T09:20:16.841Z,20.30
2018-04-25T09:21:16.891Z,20.17
2018-04-25T09:22:17.164Z,20.90
2018-04-25T09:23:16.459Z,21.26
2018-04-25T09:24:16.714Z,21.74
2018-04-25T09:25:16.984Z,21.52
2018-04-25T09:26:16.244Z,21.81
2018-04-25T09:27:16.504Z,22.05
2018-04-25T09:28:16.762Z,22.15
2018-04-25T09:29:17.019Z,22.46
2018-04-25T09:30:16.288Z,22.60
2018-04-25T09:31:16.322Z,21.86
2018-04-25T09:32:16.588Z,22.17
2018-04-25T09:33:16.847Z,22.59
2018-04-25T09:34:17.115Z,22.98
2018-04-25T09:35:16.380Z,23.05
2018-04-25T09:36:16.640Z,22.23
2018-04-25T09:37:16.902Z,21.11
2018-04-25T09:38:17.170Z,20.61
2018-04-25T09:39:16.443Z,20.23
2018-04-25T09:40:16.717Z,20.05
2018-04-25T09:41:16.759Z,20.36
2018-04-25T09:42:17.020Z,19.92
2018-04-25T09:43:16.291Z,19.48
2018-04-25T09:44:16.549Z,19.17
2018-04-25T09:45:16.814Z,19.17
2018-04-25T09:46:17.078Z,18.98
2018-04-25T09:47:16.347Z,19.11
2018-04-25T09:48:16.609Z,18.98
2018-04-25T09:49:16.865Z,19.05
2018-04-25T09:50:17.146Z,19.48
2018-04-25T09:51:17.187Z,20.11
2018-04-25T09:52:16.448Z,20.11
2018-04-25T09:53:16.727Z,19.67
2018-04-25T09:54:16.996Z,19.42
2018-04-25T09:55:16.260Z,19.23
2018-04-25T09:56:16.523Z,19.55
2018-04-25T09:57:17.060Z,19.98
2018-04-25T09:58:16.319Z,20.17
2018-04-25T09:59:16.582Z,20.17
2018-04-25T10:00:16.847Z,20.11
2018-04-25T10:01:16.894Z,20.55
2018-04-25T10:02:17.182Z,20.36
2018-04-25T10:03:16.457Z,20.30
2018-04-25T10:04:16.723Z,20.17
2018-04-25T10:05:16.988Z,20.17
2018-04-25T10:06:16.250Z,20.11
2018-04-25T10:07:16.508Z,20.05
2018-04-25T10:08:17.080Z,20.17
2018-04-25T10:09:16.345Z,20.42
2018-04-25T10:10:16.612Z,20.36
2018-04-25T10:11:16.675Z,20.23
2018-04-25T10:12:16.932Z,19.98
2018-04-25T10:13:17.217Z,19.92
2018-04-25T10:14:16.481Z,19.73
2018-04-25T10:15:16.838Z,19.73
2018-04-25T10:16:17.184Z,19.61
2018-04-25T10:17:16.554Z,19.23
2018-04-25T10:18:16.892Z,19.05
2018-04-25T10:19:17.180Z,18.80
2018-04-25T10:20:16.442Z,18.67
2018-04-25T10:21:16.487Z,18.67
2018-04-25T10:22:16.750Z,18.80
2018-04-25T10:23:17.025Z,18.48
2018-04-25T10:24:16.280Z,18.48
2018-04-25T10:25:16.593Z,18.73
2018-04-25T10:26:16.857Z,18.86
2018-04-25T10:27:17.124Z,19.05
2018-04-25T10:28:16.395Z,18.80
2018-04-25T10:29:16.661Z,18.80
2018-04-25T10:30:16.919Z,18.73
2018-04-25T10:31:16.967Z,18.98
2018-04-25T10:32:17.233Z,19.42
2018-04-25T10:33:16.490Z,19.48
2018-04-25T10:34:16.761Z,19.48
2018-04-25T10:35:17.028Z,19.67
2018-04-25T10:36:16.290Z,19.80
2018-04-25T10:37:16.549Z,19.80
2018-04-25T10:38:16.813Z,19.73
2018-04-25T10:39:17.152Z,19.92
2018-04-25T10:40:16.423Z,20.05
2018-04-25T10:41:16.465Z,20.17
2018-04-25T10:42:16.728Z,19.92
2018-04-25T10:43:16.992Z,20.23
2018-04-25T10:44:16.267Z,20.11
2018-04-25T10:45:16.798Z,20.30
2018-04-25T10:46:17.061Z,20.36
2018-04-25T10:47:16.325Z,20.73
2018-04-25T10:48:16.586Z,20.80
2018-04-25T10:49:16.845Z,20.73
2018-04-25T10:50:17.134Z,20.67
2018-04-25T10:51:17.158Z,20.61
2018-04-25T10:52:16.433Z,20.67
2018-04-25T10:53:16.694Z,20.98
2018-04-25T10:54:16.958Z,21.05
2018-04-25T10:55:17.307Z,20.80
2018-04-25T10:56:16.667Z,20.86
2018-04-25T10:57:16.925Z,21.23
2018-04-25T10:58:17.184Z,21.48
2018-04-25T10:59:16.442Z,21.11
2018-04-25T11:00:16.711Z,21.11
2018-04-25T11:01:16.752Z,21.23
2018-04-25T11:02:17.015Z,21.42
2018-04-25T11:03:16.283Z,21.11
2018-04-25T11:04:16.547Z,21.23
2018-04-25T11:05:16.806Z,21.55
2018-04-25T11:06:17.061Z,20.30
2018-04-25T11:07:16.320Z,20.42
2018-04-25T11:08:16.676Z,20.42
2018-04-25T11:09:16.997Z,20.36
2018-04-25T11:10:16.265Z,20.36
2018-04-25T11:11:16.318Z,20.30
2018-04-25T11:12:16.581Z,20.11
2018-04-25T11:13:16.836Z,19.92
2018-04-25T11:14:17.105Z,20.17
2018-04-25T11:15:16.371Z,20.11
2018-04-25T11:16:16.650Z,20.05
2018-04-25T11:17:16.908Z,19.67
2018-04-25T11:18:17.166Z,19.48
2018-04-25T11:19:16.426Z,19.42
2018-04-25T11:20:16.736Z,19.30
2018-04-25T11:21:16.764Z,19.17
2018-04-25T11:22:17.029Z,19.23
2018-04-25T11:23:16.289Z,19.61
2018-04-25T11:24:16.553Z,19.61
2018-04-25T11:25:16.812Z,19.67
2018-04-25T11:26:17.091Z,19.73
2018-04-25T11:27:16.362Z,19.92
2018-04-25T11:28:16.622Z,20.17
2018-04-25T11:29:16.887Z,20.36
2018-04-25T11:30:17.157Z,20.67
2018-04-25T11:31:17.206Z,20.73
2018-04-25T11:32:16.484Z,20.73
2018-04-25T11:33:16.744Z,20.73
2018-04-25T11:34:17.003Z,20.80
2018-04-25T11:35:16.268Z,20.61
2018-04-25T11:36:16.573Z,20.80
2018-04-25T11:37:16.828Z,20.55
2018-04-25T11:38:17.101Z,20.55
2018-04-25T11:39:16.366Z,20.67
2018-04-25T11:40:16.631Z,20.73
2018-04-25T11:41:16.678Z,20.67
2018-04-25T11:42:16.931Z,20.80
2018-04-25T11:43:17.197Z,20.86
2018-04-25T11:44:16.460Z,20.73
2018-04-25T11:45:16.731Z,20.67
2018-04-25T11:46:16.993Z,20.86
2018-04-25T11:47:16.286Z,20.92
2018-04-25T11:48:16.653Z,20.98
2018-04-25T11:49:16.918Z,20.92
2018-04-25T11:50:17.187Z,21.05
2018-04-25T11:51:16.240Z,20.98
2018-04-25T11:52:16.514Z,20.73
2018-04-25T11:53:16.780Z,20.98
2018-04-25T11:54:17.052Z,20.80
2018-04-25T11:55:16.308Z,21.11
2018-04-25T11:56:16.570Z,21.36
2018-04-25T11:57:16.837Z,21.48
2018-04-25T11:58:17.100Z,21.23
2018-04-25T11:59:16.363Z,21.30
2018-04-25T12:00:16.634Z,21.23
2018-04-25T12:01:16.688Z,21.30
2018-04-25T12:02:16.952Z,21.61
2018-04-25T12:03:17.206Z,21.17
2018-04-25T12:04:16.463Z,21.36
2018-04-25T12:05:16.736Z,21.42
2018-04-25T12:06:17.000Z,21.42
2018-04-25T12:07:16.254Z,21.23
2018-04-25T12:08:16.509Z,21.11
2018-04-25T12:09:16.775Z,21.23
2018-04-25T12:10:17.048Z,20.92
2018-04-25T12:11:17.083Z,21.36
2018-04-25T12:12:16.369Z,21.23
2018-04-25T12:13:16.781Z,21.17
2018-04-25T12:14:17.131Z,21.11
2018-04-25T12:15:16.394Z,20.86
2018-04-25T12:16:16.667Z,20.92
2018-04-25T12:17:16.930Z,20.67
2018-04-25T12:18:17.189Z,20.73
2018-04-25T12:19:16.449Z,20.36
2018-04-25T12:20:16.711Z,20.11
2018-04-25T12:21:16.753Z,20.23
2018-04-25T12:22:17.013Z,20.23
2018-04-25T12:23:16.277Z,20.36
2018-04-25T12:24:16.562Z,20.80
2018-04-25T12:25:16.876Z,20.98
2018-04-25T12:26:17.137Z,20.92
2018-04-25T12:27:16.394Z,20.98
2018-04-25T12:28:16.665Z,20.61
2018-04-25T12:29:16.924Z,20.61
2018-04-25T12:30:17.177Z,20.36
2018-04-25T12:31:16.246Z,20.42
2018-04-25T12:32:16.503Z,20.55
2018-04-25T12:33:16.765Z,20.36
2018-04-25T12:34:17.034Z,20.42
2018-04-25T12:35:16.293Z,20.67
2018-04-25T12:36:16.561Z,20.67
2018-04-25T12:37:16.814Z,20.86
2018-04-25T12:38:17.084Z,21.11
2018-04-25T12:39:16.348Z,20.98
2018-04-25T12:40:16.621Z,20.98
2018-04-25T12:41:16.666Z,20.86
2018-04-25T12:42:16.932Z,20.92
2018-04-25T12:43:17.290Z,20.92
2018-04-25T12:44:16.550Z,20.61
2018-04-25T12:45:16.809Z,20.42
2018-04-25T12:46:17.073Z,20.80
2018-04-25T12:47:16.421Z,20.98
2018-04-25T12:48:16.837Z,20.48
2018-04-25T12:49:17.093Z,20.42
2018-04-25T12:50:16.350Z,20.48
2018-04-25T12:51:16.400Z,20.23
2018-04-25T12:52:16.666Z,20.30
2018-04-25T12:53:16.930Z,20.42
2018-04-25T12:54:17.197Z,20.36
2018-04-25T12:55:16.453Z,20.17
2018-04-25T12:56:16.717Z,19.98
2018-04-25T12:57:16.973Z,19.73
2018-04-25T12:58:17.246Z,19.92
2018-04-25T12:59:16.511Z,19.92
2018-04-25T13:00:16.779Z,19.73
2018-04-25T13:01:16.843Z,19.86
2018-04-25T13:02:17.100Z,19.98
2018-04-25T13:03:16.358Z,19.80